Time;durP1;ratioP1;P1;durP2;ratioP2;P2;SDS_P1;SDS_P2;PMS_P1;PMS_P2;Temp;Humidity;BMP_temperature;BMP_pressure;BME280_temperature;BME280_humidity;BME280_pressure;Samples;Min_cycle;Max_cycle;Signal;HPM_P1;HPM_P2
2022/08/05 00:01:32;;;;;;;10.90;9.70;;;;;;;18.48;93.27;101043.83;104343;1286;69891;-74
2022/08/05 00:04:17;;;;;;;15.50;8.90;;;;;;;18.43;92.89;101041.71;104604;1285;63851;-77
2022/08/05 00:06:46;;;;;;;12.30;9.10;;;;;;;18.41;93.16;101033.64;104574;1285;63413;-75
2022/08/05 00:09:19;;;;;;;12.10;9.00;;;;;;;18.43;93.20;101030.44;104663;1285;59158;-75
2022/08/05 00:11:48;;;;;;;15.40;9.00;;;;;;;18.43;93.16;101027.77;104396;1285;73170;-76
2022/08/05 00:14:23;;;;;;;16.60;9.20;;;;;;;18.41;93.16;101029.44;104616;1285;62308;-74
2022/08/05 00:16:58;;;;;;;12.50;8.60;;;;;;;18.39;92.98;101026.66;104560;1285;70817;-74
2022/08/05 00:19:30;;;;;;;13.80;8.70;;;;;;;18.38;93.19;101022.33;104757;1285;63357;-75
2022/08/05 00:22:08;;;;;;;15.40;11.20;;;;;;;18.40;92.94;101024.65;104583;1285;62537;-76
2022/08/05 00:24:39;;;;;;;13.00;8.80;;;;;;;18.40;93.43;101017.70;104777;1285;61397;-76
2022/08/05 00:27:10;;;;;;;11.90;8.90;;;;;;;18.39;93.36;101016.27;104635;1285;73703;-74
2022/08/05 00:29:44;;;;;;;12.00;8.30;;;;;;;18.38;93.78;101014.58;104544;1285;72879;-74
2022/08/05 00:32:13;;;;;;;15.10;9.30;;;;;;;18.33;93.55;101009.25;104631;1285;70738;-75
2022/08/05 00:34:44;;;;;;;13.10;9.20;;;;;;;18.34;93.64;101004.70;104773;1285;74156;-75
2022/08/05 00:37:34;;;;;;;12.10;9.50;;;;;;;18.35;93.85;101000.60;104736;1285;63541;-78
2022/08/05 00:40:26;;;;;;;12.00;9.60;;;;;;;18.34;93.71;100999.08;104751;1285;58191;-79
2022/08/05 00:43:00;;;;;;;13.80;9.90;;;;;;;18.33;94.01;100999.06;104388;1285;73932;-77
2022/08/05 00:45:29;;;;;;;14.40;9.40;;;;;;;18.32;94.19;101000.54;104814;1285;61742;-77
2022/08/05 00:48:18;;;;;;;13.30;9.70;;;;;;;18.31;94.10;100998.17;104676;1285;59421;-77
2022/08/05 00:50:59;;;;;;;13.10;8.60;;;;;;;18.31;94.04;100994.84;104714;1285;72284;-77
2022/08/05 00:53:36;;;;;;;12.30;9.20;;;;;;;18.30;93.88;100995.51;104669;1285;59196;-78
2022/08/05 00:56:25;;;;;;;11.00;8.80;;;;;;;18.20;93.34;100996.75;104505;1285;62497;-76
2022/08/05 00:58:54;;;;;;;11.70;9.60;;;;;;;18.17;92.93;100992.17;104818;1285;74549;-77
2022/08/05 01:01:24;;;;;;;12.30;9.40;;;;;;;18.11;92.25;100993.94;104892;1285;72203;-75
2022/08/05 01:04:12;;;;;;;14.80;9.10;;;;;;;18.04;92.92;100990.78;104734;1285;71824;-75
2022/08/05 01:06:43;;;;;;;10.20;8.90;;;;;;;18.00;93.11;100990.17;106084;1284;63499;-78
2022/08/05 01:09:16;;;;;;;;;;;;;;;17.97;93.03;100989.00;104721;1284;58824;-73
2022/08/05 01:11:54;;;;;;;15.90;9.70;;;;;;;17.97;94.35;100986.05;104704;1285;57987;-74
2022/08/05 01:14:30;;;;;;;11.30;9.30;;;;;;;18.00;94.78;100984.84;104684;1285;71107;-75
2022/08/05 01:17:30;;;;;;;12.30;9.30;;;;;;;18.04;94.62;100982.05;104741;1285;61017;-74
2022/08/05 01:21:07;;;;;;;10.70;9.20;;;;;;;18.08;94.62;100979.63;104441;1285;69996;-75
2022/08/05 01:24:08;;;;;;;14.30;9.60;;;;;;;18.11;94.62;100979.34;104431;1285;63268;-76
2022/08/05 01:27:22;;;;;;;14.50;9.30;;;;;;;18.10;94.29;100978.27;104668;1285;62707;-76
2022/08/05 01:29:57;;;;;;;13.90;9.70;;;;;;;18.09;94.25;100981.00;104993;1285;59216;-74
2022/08/05 01:32:30;;;;;;;14.00;10.60;;;;;;;18.11;94.07;100988.39;104999;1285;73823;-75
2022/08/05 01:35:16;;;;;;;15.30;9.80;;;;;;;18.14;93.37;100992.30;104994;1285;71369;-76
2022/08/05 01:38:07;;;;;;;13.40;10.20;;;;;;;18.13;93.73;100995.52;104773;1285;59444;-75
2022/08/05 01:40:54;;;;;;;11.50;9.50;;;;;;;18.16;94.16;100996.83;104816;1284;73353;-75
2022/08/05 01:43:27;;;;;;;12.80;9.80;;;;;;;18.19;94.16;100994.59;104849;1285;58858;-75
2022/08/05 01:45:57;;;;;;;10.70;9.40;;;;;;;18.16;93.71;100992.23;104648;1284;61458;-74
2022/08/05 01:48:46;;;;;;;11.70;8.30;;;;;;;18.15;94.04;100993.05;104647;1285;63268;-76
2022/08/05 01:51:17;;;;;;;13.70;9.40;;;;;;;18.14;93.93;100993.50;104803;1285;61896;-76
2022/08/05 01:53:50;;;;;;;11.50;10.20;;;;;;;18.13;93.58;100992.17;104696;1284;69950;-74
2022/08/05 01:56:29;;;;;;;14.50;9.40;;;;;;;18.12;93.76;100998.50;104703;1285;73973;-76
2022/08/05 01:59:22;;;;;;;14.10;8.90;;;;;;;18.07;94.16;100992.59;104669;1286;58963;-77
2022/08/05 02:01:53;;;;;;;11.60;9.10;;;;;;;18.05;94.33;100990.42;105030;1286;59142;-79
2022/08/05 02:04:28;;;;;;;11.50;9.20;;;;;;;18.02;94.49;100989.73;105094;1285;72916;-73
2022/08/05 02:06:58;;;;;;;9.70;8.30;;;;;;;18.01;94.25;100989.66;105011;1285;61483;-77
2022/08/05 02:09:27;;;;;;;12.00;8.90;;;;;;;17.99;94.27;100987.30;104649;1286;69200;-76
2022/08/05 02:12:05;;;;;;;13.50;9.10;;;;;;;17.97;94.28;100986.16;104884;1285;74771;-75
2022/08/05 02:14:51;;;;;;;10.80;9.60;;;;;;;17.96;94.67;100988.27;104593;1284;58245;-74
2022/08/05 02:17:54;;;;;;;11.80;8.80;;;;;;;17.91;94.77;100986.14;105098;1285;58541;-75
2022/08/05 02:21:13;;;;;;;12.30;9.00;;;;;;;17.86;94.43;100983.73;105144;1285;72051;-75
2022/08/05 02:23:49;;;;;;;11.10;9.50;;;;;;;17.88;94.73;100980.27;104889;1285;73021;-74
2022/08/05 02:26:27;;;;;;;11.00;8.70;;;;;;;17.89;94.78;100979.64;104714;1287;70695;-76
2022/08/05 02:28:57;;;;;;;11.00;8.30;;;;;;;17.88;94.18;100981.86;104851;1285;71946;-75
2022/08/05 02:31:29;;;;;;;13.70;8.70;;;;;;;17.86;94.09;100982.42;104655;1285;62978;-75
2022/08/05 02:34:14;;;;;;;13.10;9.60;;;;;;;17.83;94.01;100979.71;104835;1285;59157;-74
2022/08/05 02:36:54;;;;;;;12.40;9.20;;;;;;;17.78;94.20;100981.45;104847;1285;71276;-77
2022/08/05 02:39:26;;;;;;;12.90;9.90;;;;;;;17.72;94.34;100981.99;104817;1285;72506;-79
2022/08/05 02:41:57;;;;;;;17.30;10.30;;;;;;;17.70;94.97;100988.89;104712;1286;60678;-75
2022/08/05 02:44:33;;;;;;;10.60;9.20;;;;;;;17.66;94.88;100994.03;104553;1286;73451;-77
2022/08/05 02:47:06;;;;;;;12.40;9.00;;;;;;;17.63;95.05;100993.20;104740;1285;63704;-75
2022/08/05 02:49:41;;;;;;;14.30;9.50;;;;;;;17.65;95.20;100988.14;104986;1285;59477;-75
2022/08/05 02:52:16;;;;;;;12.10;9.80;;;;;;;17.68;95.47;100991.89;104788;1285;63035;-77
2022/08/05 02:55:00;;;;;;;13.30;9.10;;;;;;;17.68;94.89;100999.79;104820;1285;70724;-76
2022/08/05 02:57:37;;;;;;;17.20;9.80;;;;;;;17.65;94.79;101002.05;104601;1285;70684;-76
2022/08/05 03:00:28;;;;;;;11.00;9.40;;;;;;;17.61;94.91;101003.33;104664;1285;63167;-75
2022/08/05 03:02:58;;;;;;;12.70;9.70;;;;;;;17.60;94.80;100999.49;105583;1285;60802;-79
2022/08/05 03:05:28;;;;;;;12.80;10.10;;;;;;;17.60;95.71;101004.48;105925;1284;59619;-80
2022/08/05 03:08:18;;;;;;;15.10;9.10;;;;;;;17.58;95.45;101011.35;105620;1285;72838;-80
2022/08/05 03:10:57;;;;;;;13.60;8.90;;;;;;;17.56;95.16;101014.95;105911;1285;60886;-79
2022/08/05 03:13:48;;;;;;;14.60;9.60;;;;;;;17.49;95.33;101009.87;105604;1285;69265;-80
2022/08/05 03:16:30;;;;;;;11.30;8.70;;;;;;;17.49;95.44;101007.95;105882;1285;73886;-80
2022/08/05 03:19:00;;;;;;;12.60;9.20;;;;;;;17.55;95.39;101008.67;106082;1285;61385;-79
2022/08/05 03:21:40;;;;;;;14.40;9.40;;;;;;;17.58;95.35;101008.84;105982;1285;58647;-82
2022/08/05 03:24:20;;;;;;;14.90;10.00;;;;;;;17.64;95.06;101010.08;106074;1285;71615;-79
2022/08/05 03:26:59;;;;;;;14.20;10.20;;;;;;;17.68;95.65;101013.14;105832;1285;72107;-78
2022/08/05 03:29:28;;;;;;;13.20;9.70;;;;;;;17.72;94.80;101016.17;105971;1285;59797;-81
2022/08/05 03:32:18;;;;;;;12.80;9.10;;;;;;;17.78;94.38;101019.81;105924;1284;73778;-79
2022/08/05 03:34:48;;;;;;;14.80;10.40;;;;;;;17.82;94.32;101016.58;106040;1285;63637;-80
2022/08/05 03:37:19;;;;;;;13.90;11.10;;;;;;;17.79;94.24;100999.80;106122;1285;61196;-77
2022/08/05 03:40:00;;;;;;;17.60;11.40;;;;;;;17.91;93.96;101009.95;105986;1286;62245;-79
2022/08/05 03:42:33;;;;;;;13.70;9.20;;;;;;;17.98;93.39;101017.29;105792;1285;62855;-80
2022/08/05 03:45:20;;;;;;;16.40;9.90;;;;;;;18.06;93.26;101019.48;105951;1285;70037;-81
2022/08/05 03:47:51;;;;;;;13.90;10.60;;;;;;;18.15;93.42;101019.19;105855;1285;63250;-81
2022/08/05 03:50:44;;;;;;;15.80;10.80;;;;;;;18.23;93.23;101015.52;106018;1285;58846;-80
2022/08/05 03:53:54;;;;;;;20.80;11.20;;;;;;;18.34;92.99;101017.95;106146;1284;60480;-80
2022/08/05 03:56:48;;;;;;;18.40;11.40;;;;;;;18.43;92.84;101012.66;106342;1285;63986;-82
2022/08/05 03:59:27;;;;;;;18.90;11.10;;;;;;;18.52;92.61;101012.80;106778;1284;60987;-81
2022/08/05 04:02:19;;;;;;;17.50;11.10;;;;;;;18.61;92.11;101011.53;106540;1284;59431;-79
2022/08/05 04:05:11;;;;;;;16.70;10.30;;;;;;;18.69;91.77;101012.52;106508;1283;62618;-81
2022/08/05 04:07:40;;;;;;;;;;;;;;;18.79;91.34;101013.39;106256;1285;62265;-79
2022/08/05 04:10:28;;;;;;;16.70;9.60;;;;;;;18.89;91.43;101018.17;106098;1285;57536;-81
2022/08/05 04:13:07;;;;;;;17.70;10.90;;;;;;;19.03;90.94;101014.34;106403;1285;62404;-80
2022/08/05 04:15:36;;;;;;;16.70;11.60;;;;;;;19.09;90.49;101015.05;106577;1284;71674;-80
2022/08/05 04:18:24;;;;;;;17.80;11.10;;;;;;;19.09;90.47;101018.14;106281;1285;59762;-80
2022/08/05 04:20:56;;;;;;;;;;;;;;;19.09;90.67;101019.14;106402;1284;72789;-82
2022/08/05 04:23:28;;;;;;;16.70;11.70;;;;;;;19.15;90.43;101021.04;106348;1285;59155;-81
2022/08/05 04:26:17;;;;;;;16.90;12.10;;;;;;;19.17;90.75;101019.08;106519;1285;60680;-80
2022/08/05 04:28:46;;;;;;;15.90;9.80;;;;;;;19.24;90.73;101017.17;106427;1285;62251;-82
2022/08/05 04:31:19;;;;;;;22.60;11.00;;;;;;;19.39;90.18;101020.27;106667;1284;72939;-80
2022/08/05 04:33:48;;;;;;;15.80;11.20;;;;;;;19.46;90.36;101017.23;106033;1284;59374;-76
2022/08/05 04:36:37;;;;;;;16.80;10.60;;;;;;;19.58;90.11;101018.10;105130;1285;63577;-76
2022/08/05 04:39:19;;;;;;;14.60;9.60;;;;;;;19.74;89.44;101014.23;105286;1285;63160;-79
2022/08/05 04:41:51;;;;;;;14.00;9.40;;;;;;;19.86;88.99;101020.79;105056;1285;57579;-76
2022/08/05 04:44:55;;;;;;;16.90;10.50;;;;;;;20.00;88.35;101016.98;105907;1272;64016;31
2022/08/05 04:47:24;;;;;;;20.40;11.20;;;;;;;20.14;88.42;101022.23;107081;1273;71680;-82
2022/08/05 04:49:55;;;;;;;16.60;10.60;;;;;;;20.23;87.34;101021.01;107298;1272;69018;-80
2022/08/05 04:53:13;;;;;;;21.30;11.40;;;;;;;20.39;87.34;101017.11;107155;1273;73708;31
2022/08/05 04:55:45;;;;;;;13.80;10.60;;;;;;;20.47;86.72;101003.63;106972;1283;63184;-84
2022/08/05 05:18:34;;;;;;;14.20;9.00;;;;;;;21.31;82.62;100985.69;107303;1270;60385;-86
2022/08/05 05:21:04;;;;;;;9.90;8.30;;;;;;;21.44;81.87;100995.34;107323;1272;60671;-83
2022/08/05 05:23:35;;;;;;;10.10;8.10;;;;;;;21.66;82.09;101008.32;107303;1272;72501;-79
2022/08/05 05:48:07;;;;;;;12.10;9.30;;;;;;;22.30;78.54;101002.63;95436;1272;73416;31
2022/08/05 07:44:09;;;;;;;8.60;7.40;;;;;;;25.57;61.20;100962.65;97565;1277;63766;-84
2022/08/05 07:54:37;;;;;;;8.00;6.90;;;;;;;25.73;61.15;100956.11;95189;1279;63367;-83
2022/08/05 08:26:15;;;;;;;9.40;7.60;;;;;;;26.24;58.32;100958.17;107421;1272;70081;31
2022/08/05 08:33:59;;;;;;;9.50;7.20;;;;;;;26.47;57.63;100946.09;107449;1271;57978;31
2022/08/05 08:36:28;;;;;;;8.90;7.10;;;;;;;26.55;56.55;100950.48;107155;1272;58409;-82
2022/08/05 09:03:20;;;;;;;8.30;6.70;;;;;;;27.62;53.42;100927.31;103664;1272;63509;-83
2022/08/05 09:10:10;;;;;;;7.30;6.00;;;;;;;27.74;52.49;100924.33;107494;1270;60634;31
2022/08/05 09:12:39;;;;;;;7.30;6.30;;;;;;;27.54;52.81;100926.06;106382;1280;63755;-76
2022/08/05 09:15:10;;;;;;;7.40;6.60;;;;;;;27.60;52.60;100922.36;105602;1282;59050;-77
2022/08/05 09:17:42;;;;;;;8.90;6.60;;;;;;;27.52;51.31;100917.00;105632;1282;57522;-77
2022/08/05 09:20:17;;;;;;;9.80;5.90;;;;;;;27.66;51.80;100919.48;106247;1282;62348;-77
2022/08/05 09:23:16;;;;;;;8.10;6.50;;;;;;;27.90;51.65;100924.58;106110;1282;70404;-79
2022/08/05 09:26:10;;;;;;;8.00;6.40;;;;;;;28.01;51.09;100926.79;106663;1281;59263;-80
2022/08/05 09:28:48;;;;;;;10.60;6.50;;;;;;;28.05;51.12;100924.66;106727;1281;63423;-78
2022/08/05 09:31:17;;;;;;;9.10;6.10;;;;;;;28.03;50.97;100926.83;106722;1281;58055;-78
2022/08/05 09:34:10;;;;;;;7.60;5.90;;;;;;;28.12;50.38;100925.55;106421;1282;60561;-78
2022/08/05 09:36:51;;;;;;;8.10;6.50;;;;;;;28.34;50.33;100913.47;106037;1282;72890;-76
2022/08/05 09:39:29;;;;;;;6.90;5.80;;;;;;;28.14;49.77;100918.58;105933;1282;61628;-78
2022/08/05 09:42:20;;;;;;;8.00;5.50;;;;;;;27.87;49.59;100921.07;106585;1281;59273;-78
2022/08/05 09:45:07;;;;;;;7.30;6.00;;;;;;;27.82;49.52;100920.06;106441;1282;63033;-74
2022/08/05 09:47:56;;;;;;;6.20;5.20;;;;;;;27.80;49.48;100916.05;106520;1282;57698;-79
2022/08/05 09:50:37;;;;;;;6.50;5.40;;;;;;;28.11;49.20;100916.26;106798;1281;60466;-80
2022/08/05 09:53:13;;;;;;;7.50;5.70;;;;;;;28.29;49.10;100908.73;106674;1282;62663;-80
2022/08/05 09:56:02;;;;;;;7.00;5.70;;;;;;;28.51;48.67;100908.50;106420;1283;60926;-78
2022/08/05 09:58:40;;;;;;;9.00;5.50;;;;;;;28.60;47.71;100911.22;106491;1281;70760;-79
2022/08/05 10:01:13;;;;;;;8.20;5.90;;;;;;;28.62;47.37;100904.95;106292;1282;74454;-77
2022/08/05 10:04:03;;;;;;;6.80;6.00;;;;;;;28.70;46.94;100913.61;106706;1282;61042;-78
2022/08/05 10:06:54;;;;;;;8.30;6.10;;;;;;;28.87;46.91;100907.95;106718;1281;61466;-81
2022/08/05 10:09:27;;;;;;;7.10;5.70;;;;;;;28.64;46.87;100909.42;106780;1282;72968;-80
2022/08/05 10:12:10;;;;;;;6.60;6.00;;;;;;;28.72;45.93;100913.68;106439;1281;60944;-80
2022/08/05 10:15:19;;;;;;;7.30;5.40;;;;;;;28.70;46.16;100908.65;106645;1282;70031;-79
2022/08/05 10:18:18;;;;;;;6.60;5.20;;;;;;;28.55;45.99;100909.84;106493;1282;72323;-78
2022/08/05 10:20:55;;;;;;;5.90;5.30;;;;;;;28.44;46.37;100910.94;106475;1281;61145;-78
2022/08/05 10:23:27;;;;;;;7.60;5.80;;;;;;;28.44;46.43;100902.88;106239;1282;57720;-79
2022/08/05 10:26:16;;;;;;;;;;;;;;;28.95;46.23;100900.36;106499;1282;65422;-80
2022/08/05 10:28:46;;;;;;;6.80;5.30;;;;;;;29.40;45.41;100893.16;106490;1281;71584;-80
2022/08/05 10:31:16;;;;;;;7.10;4.90;;;;;;;29.62;44.76;100892.15;105160;1282;59705;-77
2022/08/05 10:34:07;;;;;;;5.90;5.20;;;;;;;29.44;44.18;100897.77;104783;1282;62691;-75
2022/08/05 10:36:38;;;;;;;7.10;4.90;;;;;;;29.42;44.05;100895.08;104902;1282;57528;-76
2022/08/05 10:39:20;;;;;;;7.30;5.30;;;;;;;29.50;44.39;100888.45;105420;1281;59824;-81
2022/08/05 10:42:09;;;;;;;8.40;5.40;;;;;;;30.03;43.94;100890.58;106385;1282;63256;-81
2022/08/05 10:44:45;;;;;;;6.20;5.60;;;;;;;30.44;42.29;100887.02;105744;1282;72206;-78
2022/08/05 10:47:15;;;;;;;8.30;5.90;;;;;;;30.66;42.33;100884.96;105807;1282;70822;-78
2022/08/05 10:50:10;;;;;;;8.30;5.60;;;;;;;30.29;42.42;100892.77;105794;1282;73845;-78
2022/08/05 10:52:59;;;;;;;6.50;5.40;;;;;;;30.11;42.91;100890.84;105376;1282;57773;-77
2022/08/05 10:55:30;;;;;;;6.80;5.50;;;;;;;29.77;43.61;100886.86;105236;1283;59669;-75
2022/08/05 10:58:19;;;;;;;7.20;5.10;;;;;;;29.47;43.70;100884.49;105120;1282;63607;-75
2022/08/05 11:00:50;;;;;;;6.10;5.30;;;;;;;29.60;43.75;100882.45;105211;1282;62100;-76
2022/08/05 11:03:31;;;;;;;6.10;5.50;;;;;;;29.92;43.95;100875.14;106016;1282;59212;-77
2022/08/05 11:06:08;;;;;;;10.70;5.30;;;;;;;30.38;42.79;100875.64;106328;1282;63803;-78
2022/08/05 11:09:20;;;;;;;6.80;5.30;;;;;;;30.48;42.22;100878.74;106867;1275;60784;-78
2022/08/05 11:12:38;;;;;;;7.30;5.90;;;;;;;29.99;42.16;100856.56;106796;1281;61199;-80
2022/08/05 11:15:38;;;;;;;7.50;5.40;;;;;;;30.32;42.36;100872.83;106809;1281;64039;-80
2022/08/05 11:18:33;;;;;;;9.00;5.10;;;;;;;30.53;41.84;100871.91;105882;1282;61882;-81
2022/08/05 11:21:02;;;;;;;5.20;4.50;;;;;;;31.01;40.80;100877.01;106370;1282;70051;-81
2022/08/05 11:28:21;;;;;;;7.00;4.40;;;;;;;31.57;37.62;100864.13;107359;1272;60572;-78
2022/08/05 11:30:56;;;;;;;5.10;4.50;;;;;;;32.14;37.03;100862.93;106530;1282;58051;-80
2022/08/05 11:34:07;;;;;;;5.00;4.40;;;;;;;31.85;37.05;100870.85;106353;1285;62205;-81
2022/08/05 11:36:50;;;;;;;6.80;4.70;;;;;;;31.60;37.92;100869.45;106303;1285;61477;-80
2022/08/05 11:39:50;;;;;;;5.30;4.70;;;;;;;31.46;38.48;100869.70;106573;1286;59416;-79
2022/08/05 11:43:21;;;;;;;5.40;4.80;;;;;;;30.70;40.14;100875.21;107383;1272;72063;31
2022/08/05 11:46:12;;;;;;;5.70;5.10;;;;;;;30.13;41.19;100875.09;106872;1271;57738;-83
2022/08/05 11:49:03;;;;;;;6.10;5.10;;;;;;;29.79;41.64;100851.27;106738;1275;59855;-75
2022/08/05 11:51:36;;;;;;;7.20;5.10;;;;;;;29.94;41.68;100856.63;106920;1272;74098;-79
2022/08/05 11:54:36;;;;;;;6.60;5.20;;;;;;;29.99;41.99;100861.09;106680;1282;72552;-79
2022/08/05 12:05:05;;;;;;;5.00;4.40;;;;;;;32.09;38.35;100851.33;103204;1283;60851;-77
2022/08/05 12:07:47;;;;;;;6.50;4.40;;;;;;;32.46;36.62;100847.05;105731;1285;59113;-78
2022/08/05 12:11:46;;;;;;;5.00;4.10;;;;;;;32.81;36.37;100845.67;105882;1286;72984;-77
2022/08/05 12:15:58;;;;;;;5.80;4.50;;;;;;;33.18;35.21;100836.67;105820;1286;70397;-77
2022/08/05 12:18:31;;;;;;;;;;;;;;;33.65;35.20;100838.23;105230;1287;70059;-76
2022/08/05 12:21:42;;;;;;;5.30;4.40;;;;;;;33.76;34.63;100832.80;105176;1288;63928;-75
2022/08/05 12:25:54;;;;;;;4.20;3.80;;;;;;;33.31;34.87;100830.55;105042;1295;60672;-79
2022/08/05 12:29:30;;;;;;;5.00;4.00;;;;;;;33.27;34.56;100826.84;105009;1294;57532;-76
2022/08/05 12:33:10;;;;;;;4.30;3.80;;;;;;;33.58;34.43;100819.81;105621;1293;62377;-78
2022/08/05 12:37:40;;;;;;;5.30;4.10;;;;;;;34.29;33.80;100820.59;105360;1293;73330;-78
2022/08/05 12:44:48;;;;;;;4.20;3.80;;;;;;;35.00;30.96;100816.34;105639;1292;63883;-79
2022/08/05 12:47:31;;;;;;;4.30;3.60;;;;;;;35.21;30.64;100811.09;105268;1293;58237;-78
2022/08/05 13:00:45;;;;;;;5.70;3.90;;;;;;;34.41;31.29;100807.79;106327;1282;62333;-77
2022/08/05 13:24:18;;;;;;;4.30;3.90;;;;;;;36.04;29.09;100794.58;105243;1282;72953;-76
2022/08/05 13:27:08;;;;;;;4.70;3.60;;;;;;;36.20;29.16;100792.61;105087;1283;63447;-73
2022/08/05 13:29:38;;;;;;;4.60;3.70;;;;;;;36.33;29.02;100790.77;105449;1283;60018;-75
2022/08/05 13:32:27;;;;;;;5.00;3.80;;;;;;;35.93;29.76;100785.47;105116;1283;63487;-75
2022/08/05 13:35:08;;;;;;;7.80;4.30;;;;;;;36.58;29.42;100783.55;105122;1283;60533;-77
2022/08/05 13:37:37;;;;;;;5.10;3.60;;;;;;;37.31;27.76;100785.38;105063;1282;60855;-77
2022/08/05 13:40:09;;;;;;;4.30;3.80;;;;;;;37.51;27.22;100785.58;105025;1283;63400;-76
2022/08/05 13:42:47;;;;;;;5.00;3.80;;;;;;;37.04;26.95;100780.21;104607;1286;61902;-75
2022/08/05 13:45:38;;;;;;;4.10;3.70;;;;;;;36.95;27.26;100774.44;104840;1282;62416;-79
2022/08/05 13:48:10;;;;;;;4.90;3.90;;;;;;;36.93;27.61;100774.92;104794;1283;73203;-76
2022/08/05 13:59:44;;;;;;;5.00;3.80;;;;;;;36.55;28.22;100775.53;104886;1283;65722;-75
2022/08/05 14:02:25;;;;;;;5.00;3.80;;;;;;;35.99;29.28;100785.09;104895;1282;63638;-74
2022/08/05 14:08:39;;;;;;;5.10;4.00;;;;;;;35.06;30.35;100785.16;104833;1283;74121;-75
2022/08/05 14:11:08;;;;;;;5.60;4.20;;;;;;;34.57;31.42;100788.09;104902;1282;58925;-77
2022/08/05 14:14:33;;;;;;;6.30;4.60;;;;;;;34.17;32.22;100788.42;104661;1285;58979;-76
2022/08/05 14:17:03;;;;;;;5.50;4.40;;;;;;;33.79;32.83;100784.97;104595;1286;73370;-78
2022/08/05 14:20:29;;;;;;;7.80;5.30;;;;;;;34.16;32.44;100782.91;104407;1288;60766;-77
2022/08/05 14:22:59;;;;;;;5.00;4.50;;;;;;;34.53;31.93;100781.20;104552;1283;59454;-77
2022/08/05 14:25:30;;;;;;;5.10;4.50;;;;;;;34.37;31.99;100778.34;104613;1285;73127;-78
2022/08/05 14:27:58;;;;;;;6.10;4.40;;;;;;;35.05;31.39;100773.40;104893;1282;59168;-77
2022/08/05 14:30:28;;;;;;;4.80;4.10;;;;;;;35.65;30.78;100776.17;104870;1282;61112;-76
2022/08/05 14:32:57;;;;;;;4.50;3.60;;;;;;;35.37;30.66;100777.63;105042;1282;62060;-76
2022/08/05 14:35:26;;;;;;;4.30;3.90;;;;;;;34.81;31.01;100777.19;105004;1282;61857;-76
2022/08/05 14:38:16;;;;;;;5.40;4.20;;;;;;;35.30;30.45;100772.98;104962;1282;69916;-79
2022/08/05 14:41:04;;;;;;;7.40;4.50;;;;;;;35.65;30.14;100778.01;104816;1282;74586;-76
2022/08/05 14:43:54;;;;;;;;;;;;;;;34.98;31.08;100772.71;104844;1283;58295;-75
2022/08/05 14:48:23;;;;;;;4.40;4.00;;;;;;;35.15;31.04;100768.77;104575;1286;59302;-76
2022/08/05 14:51:01;;;;;;;4.90;4.40;;;;;;;35.62;30.01;100774.75;104439;1288;63452;-76
2022/08/05 14:53:30;;;;;;;4.20;3.80;;;;;;;36.14;29.28;100776.90;104412;1286;61905;-76
2022/08/05 14:56:11;;;;;;;6.50;4.10;;;;;;;36.59;28.87;100770.65;104295;1287;59810;-76
2022/08/05 14:58:41;;;;;;;5.20;3.90;;;;;;;36.73;28.27;100769.90;104368;1286;74209;-78
2022/08/05 15:02:07;;;;;;;4.70;4.10;;;;;;;36.80;28.14;100768.58;103993;1290;61089;-76
2022/08/05 15:04:43;;;;;;;5.30;4.40;;;;;;;36.62;28.62;100766.12;104195;1288;59172;-76
2022/08/05 15:07:17;;;;;;;6.10;4.50;;;;;;;37.08;28.01;100761.52;104372;1287;64084;-77
2022/08/05 15:10:42;;;;;;;6.10;4.20;;;;;;;35.93;29.19;100763.69;104213;1289;71486;-76
2022/08/05 15:19:51;;;;;;;5.20;4.50;;;;;;;33.86;32.41;100759.59;103983;1291;74012;-78
2022/08/05 15:23:37;;;;;;;5.80;4.80;;;;;;;33.44;32.81;100758.38;104151;1290;59297;-76
2022/08/05 15:26:06;;;;;;;5.10;4.50;;;;;;;33.22;33.43;100753.30;104247;1289;60572;-78
2022/08/05 15:28:36;;;;;;;5.10;4.20;;;;;;;32.56;34.13;100753.02;104124;1288;64085;-78
2022/08/05 15:31:10;;;;;;;5.00;4.10;;;;;;;32.46;34.13;100755.44;104384;1290;61955;-77
2022/08/05 15:33:48;;;;;;;8.60;4.30;;;;;;;32.46;34.15;100754.60;104066;1291;68206;-77
2022/08/05 15:36:37;;;;;;;7.70;4.60;;;;;;;32.19;34.90;100757.11;104393;1288;62594;-75
2022/08/05 15:39:06;;;;;;;6.30;4.60;;;;;;;32.12;34.21;100755.46;104365;1288;60733;-74
2022/08/05 15:41:54;;;;;;;6.30;4.70;;;;;;;32.36;34.00;100752.11;104429;1288;59253;-75
2022/08/05 15:44:29;;;;;;;6.30;4.70;;;;;;;32.83;32.88;100748.80;104675;1285;73813;-75
2022/08/05 15:47:04;;;;;;;;;;;;;;;32.73;33.19;100748.06;104720;1285;60859;-76
2022/08/05 15:49:34;;;;;;;5.50;4.60;;;;;;;32.58;33.74;100746.83;104633;1285;60046;-75
2022/08/05 15:52:25;;;;;;;5.90;4.80;;;;;;;32.46;33.87;100744.34;104855;1283;63522;-75
2022/08/05 15:55:15;;;;;;;5.30;4.50;;;;;;;32.17;34.55;100752.98;104719;1285;58934;-74
2022/08/05 15:57:44;;;;;;;5.70;5.00;;;;;;;31.92;34.96;100759.13;104720;1282;61492;-75
2022/08/05 16:00:17;;;;;;;8.00;5.10;;;;;;;31.98;35.43;100758.01;104767;1285;62086;-76
2022/08/05 16:03:00;;;;;;;5.90;4.50;;;;;;;33.07;33.91;100755.03;104809;1284;63611;-76
2022/08/05 16:05:29;;;;;;;4.70;4.20;;;;;;;33.84;32.64;100753.90;104906;1282;59780;-76
2022/08/05 16:07:58;;;;;;;6.50;4.60;;;;;;;33.94;32.46;100754.00;104823;1282;64467;-76
2022/08/05 16:10:27;;;;;;;5.90;4.70;;;;;;;34.52;31.66;100756.64;104849;1282;59052;-76
2022/08/05 16:12:56;;;;;;;4.80;4.20;;;;;;;34.79;30.52;100757.13;104826;1283;59217;-75
2022/08/05 16:15:25;;;;;;;5.00;4.30;;;;;;;35.01;29.89;100758.91;104987;1282;63169;-75
2022/08/05 16:18:01;;;;;;;4.50;3.80;;;;;;;34.75;30.21;100757.54;104824;1282;61857;-76
2022/08/05 16:20:40;;;;;;;5.20;4.10;;;;;;;34.95;30.13;100753.76;104786;1282;60208;-75
2022/08/05 16:23:09;;;;;;;6.00;4.00;;;;;;;35.02;29.91;100757.89;104740;1282;74114;-75
2022/08/05 16:30:33;;;;;;;5.40;4.40;;;;;;;34.51;30.74;100755.48;104809;1282;62422;-75
2022/08/05 16:33:03;;;;;;;4.20;3.60;;;;;;;34.70;30.57;100757.27;104814;1283;62064;-75
2022/08/05 16:35:32;;;;;;;5.00;4.50;;;;;;;34.82;30.00;100758.09;104842;1282;61837;-76
2022/08/05 16:38:10;;;;;;;9.50;4.00;;;;;;;34.65;30.16;100757.56;104834;1282;59374;-77
2022/08/05 16:40:59;;;;;;;6.10;4.40;;;;;;;33.97;31.22;100754.69;104793;1282;63496;-75
2022/08/05 16:43:32;;;;;;;6.10;4.10;;;;;;;34.01;31.01;100752.30;104801;1285;59151;-74
2022/08/05 16:46:07;;;;;;;6.20;4.10;;;;;;;33.76;31.41;100756.14;104796;1282;59151;-76
2022/08/05 16:48:52;;;;;;;5.90;4.20;;;;;;;33.92;31.59;100754.75;104745;1282;73838;-76
2022/08/05 16:51:25;;;;;;;4.80;4.30;;;;;;;33.68;31.94;100754.84;104824;1282;72574;-75
2022/08/05 16:54:10;;;;;;;7.50;4.30;;;;;;;33.67;31.90;100754.35;104774;1282;60070;-76
2022/08/05 16:56:47;;;;;;;5.20;4.10;;;;;;;33.59;32.05;100751.54;104769;1282;73261;-75
2022/08/05 16:59:19;;;;;;;;;;;;;;;33.34;32.45;100750.99;104800;1282;59104;-75
2022/08/05 17:01:49;;;;;;;6.00;4.00;;;;;;;32.91;33.17;100754.60;104779;1282;59163;-76
2022/08/05 17:04:25;;;;;;;7.50;4.40;;;;;;;32.30;34.59;100755.61;104695;1283;62284;-76
2022/08/05 17:06:59;;;;;;;5.80;4.70;;;;;;;31.69;35.97;100757.73;104787;1282;63060;-75
2022/08/05 17:09:29;;;;;;;6.80;5.00;;;;;;;31.27;36.49;100763.39;104859;1282;69994;-76
2022/08/05 17:12:18;;;;;;;5.50;4.80;;;;;;;31.05;36.93;100767.45;104794;1282;62469;-76
2022/08/05 17:15:52;;;;;;;6.20;5.10;;;;;;;30.57;38.10;100766.16;104709;1283;61070;-75
2022/08/05 17:18:35;;;;;;;6.70;5.10;;;;;;;30.27;39.27;100765.42;104525;1285;61127;-76
2022/08/05 17:21:15;;;;;;;6.30;5.20;;;;;;;30.02;39.81;100765.54;104768;1285;62672;-76
2022/08/05 17:23:46;;;;;;;9.70;5.30;;;;;;;29.74;40.96;100766.77;104683;1285;61833;-77
2022/08/05 17:27:11;;;;;;;11.40;5.70;;;;;;;29.45;41.67;100770.58;103437;1286;1496838;-76